Nashoba, OK (74558)

8:11 PM CDT on October 20, 2014 (GMT -0500)
Stamper Municipal | Change Station
CLOSE
Current Station
Airport
Location: Hugo,
Elevation: 571 ft
Nearby Weather Stations

Elev 571 ft 34.03 °N, 95.54 °W | Updated 16 minutes ago

Clear
Clear
70 °F
Feels Like 70 °F
N
5
Wind Variable Wind from SE

Today
High -- | Low -- °F
--% Chance of Precip.
Yesterday
High -- | Low -- °F
Precip. -- in
7:30 AM 6:40 PM
Waning Crescent, 8% visible
Pressure 30.03 in
Visibility 10.0 miles
Clouds Clear
Dew Point 61 °F
Humidity 71%
Rainfall 0.00 in
Snow Depth Not available.
UV 0 out of 12
Pollen 3.80 out of 12
Air Quality Not available.
Flu Activity No Activity
METAR KHHW 210055Z AUTO 14004KT 10SM CLR 21/16 A3003 RMK AO2 T02130159

More Conditions Fewer Conditions

Pressure 30.03 in
Visibility 10.0 miles
Clouds Clear
Dew Point 61 °F
Humidity 71%
Rainfall 0.00 in
Snow Depth Not available.
UV 0 out of 12
Pollen 3.80 out of 12
Air Quality Not available.
Flu Activity No Activity
METAR KHHW 210055Z AUTO 14004KT 10SM CLR 21/16 A3003 RMK AO2 T02130159

More Conditions Fewer Conditions

10-Day Weather Forecast

Almanac

Astronomy

Oct. 20, 2014 Rise Set
Actual Time 7:30 AM CDT 6:40 PM CDT
Civil Twilight 7:04 AM CDT 7:05 PM CDT
Nautical Twilight 6:35 AM CDT 7:34 PM CDT
Astronomical Twilight 6:06 AM CDT 8:03 PM CDT
Moon 4:27 AM CDT (10/20) 4:56 PM CDT (10/20)
Length of Visible Light 12h 00m
Length of Day
11h 09m
Tomorrow will be 2m 2s shorter.
Waning Crescent, 8% of the Moon is Illuminated
Today
Waning Crescent
Oct 23
New
Oct 30
First Quarter
Nov 6
Full
Nov 14
Last Quarter

Today's Extremes

State Highs State Lows

Community

WunderPhotos

Upload Photos

1,763,578 photos uploaded!

Nearby

Snow Depth

Station Depth Elevation
No new snow has been reported.

Earthquake Activity

City Distance Mag. Time & Date
Boley, Oklahoma 99 miles 3.5 3:34 PM CDT
2014-10-20
Cushing, Oklahoma 133 miles 2.8 11:41 AM CDT
2014-10-20
Cushing, Oklahoma 133 miles 2.5 10:20 AM CDT
2014-10-20
Pawnee, Oklahoma 156 miles 3.0 10:04 PM CDT
2014-10-18
Minimum magnitude displayed is 2.5.

Coastal Water Temperatures

Place Temperature
No Stations Reporting

Nearby Weather Stations